Latest Coastal Weather Observations for Onslow Airport

IDW60701

Issued at 2:15 am WST Saturday 30 August 2014 (issued every 10 minutes, with the page automatically refreshed every 10 minutes)

About coastal observations | Map of coastal stations | Coastal observations for WA | Marine services | Other Formats
Station Details ID: 005017 Name: ONSLOW AIRPORT Lat: -21.67 Lon: 115.11 Height: 10.5 m
Data from the previous 72 hours. | See also: Recent months at Onslow Airport
Date/Time
WST
Temp

°C
Wind Pressure Rain
since 9am
mm
Weather Cloud Vis
km
Sea
Height
m
Swell
Dir
 
Speed
knots
Gust
knots
hPa Trend Height
m
Period
s
Dir
30/02:00am 17.3 SW 7 8 1017.7 - 0.0 - - - - - - -
30/01:30am 17.9 SW 6 6 1017.9 - 0.0 - - - - - - -
30/01:00am 18.0 SW 6 7 1017.9 - 0.0 - - - - - - -
30/12:30am 18.5 WSW 6 7 1018.0 - 0.0 - - - - - - -
30/12:00am 18.8 W 7 8 1018.0 - 0.0 - - - - - - -
 
Date/Time
WST
Temp

°C
Wind Pressure Rain
since 9am
mm
Weather Cloud Vis
km
Sea
Height
m
Swell
Dir
 
Speed
knots
Gust
knots
hPa Trend Height
m
Period
s
Dir
29/11:30pm 19.3 W 7 8 1018.1 - 0.0 - - - - - - -
29/11:00pm 19.9 WSW 8 9 1018.2 - 0.0 - - - - - - -
29/10:30pm 18.8 W 7 8 1018.3 - 0.0 - - - - - - -
29/10:00pm 19.3 W 7 8 1018.4 - 0.0 - - - - - - -
29/09:30pm 19.5 WNW 6 7 1018.3 - 0.0 - - - - - - -
29/09:00pm 19.5 NW 5 7 1018.2 - 0.0 - - - - - - -
29/08:30pm 20.0 NW 7 8 1018.0 - 0.0 - - - - - - -
29/08:00pm 19.8 W 6 6 1017.6 - 0.0 - - - - - - -
29/07:30pm 20.4 W 6 6 1017.3 - 0.0 - - - - - - -
29/07:00pm 21.7 W 7 8 1016.8 - 0.0 - - - - - - -
29/06:30pm 22.6 WNW 7 8 1016.4 - 0.0 - - - - - - -
29/06:00pm 24.4 W 9 11 1016.1 - 0.0 - - - - - - -
29/05:30pm 25.6 WNW 11 13 1016.1 - 0.0 - - - - - - -
29/05:00pm 27.1 WNW 9 11 1016.0 - 0.0 - - - - - - -
29/04:30pm 28.5 NW 10 13 1015.9 - 0.0 - - - - - - -
29/04:00pm 29.2 NW 10 12 1016.0 - 0.0 - - - - - - -
29/03:30pm 29.7 NW 10 12 1016.0 - 0.0 - - - - - - -
29/03:00pm 30.4 NW 10 12 1016.1 - 0.0 - - - - - - -
29/02:30pm 30.6 NW 10 12 1016.3 - 0.0 - - - - - - -
29/02:00pm 32.2 NW 9 11 1016.4 - 0.0 - - - - - - -
29/01:30pm 31.1 NNW 9 11 1016.7 - 0.0 - - - - - - -
29/01:00pm 31.9 NNW 8 11 1017.0 - 0.0 - - - - - - -
29/12:30pm 31.5 NW 10 13 1017.2 - 0.0 - - - - - - -
29/12:00pm 32.7 NE 6 8 1017.5 - 0.0 - - - - - - -
29/11:30am 31.7 ENE 7 10 1017.8 - 0.0 - - - - - - -
29/11:00am 30.9 NE 7 11 1018.2 - 0.0 - - - - - - -
29/10:30am 30.7 ENE 7 9 1018.5 - 0.0 - - - - - - -
29/10:00am 29.1 E 6 7 1018.7 - 0.0 - - - - - - -
29/09:30am 26.8 E 5 6 1018.8 - 0.0 - - - - - - -
29/09:00am 24.6 E 6 7 1018.7 - 0.0 - - - - - - -
29/08:30am 22.8 E 5 6 1018.5 - 0.0 - - - - - - -
29/08:00am 20.0 ESE 5 6 1018.3 - 0.0 - - - - - - -
29/07:30am 18.1 ESE 5 6 1018.0 - 0.0 - - - - - - -
29/07:00am 16.1 ESE 4 6 1017.7 - 0.0 - - - - - - -
29/06:30am 15.4 ESE 4 5 1017.5 - 0.0 - - - - - - -
29/06:00am 15.4 SE 6 7 1017.1 - 0.0 - - - - - - -
29/05:30am 14.8 ESE 7 8 1016.9 - 0.0 - - - - - - -
29/05:00am 14.5 ESE 5 6 1016.8 - 0.0 - - - - - - -
29/04:30am 14.3 SE 5 5 1016.8 - 0.0 - - - - - - -
29/04:00am 14.1 SE 6 7 1016.7 - 0.0 - - - - - - -
29/03:30am 15.2 SE 5 6 1016.8 - 0.0 - - - - - - -
29/03:00am 15.6 SE 5 7 1016.9 - 0.0 - - - - - - -
29/02:30am 16.4 SE 5 6 1017.0 - 0.0 - - - - - - -
29/02:00am 16.9 SE 6 8 1016.9 - 0.0 - - - - - - -
29/01:30am 17.4 S 5 6 1017.0 - 0.0 - - - - - - -
29/01:00am 17.2 SSW 4 5 1017.3 - 0.0 - - - - - - -
29/12:30am 17.6 SW 6 7 1017.7 - 0.0 - - - - - - -
29/12:00am 18.0 SW 4 5 1018.1 - 0.0 - - - - - - -
 
Date/Time
WST
Temp

°C
Wind Pressure Rain
since 9am
mm
Weather Cloud Vis
km
Sea
Height
m
Swell
Dir
 
Speed
knots
Gust
knots
hPa Trend Height
m
Period
s
Dir
28/11:30pm 18.8 SW 5 6 1018.2 - 0.0 - - - - - - -
28/11:00pm 18.5 WSW 4 5 1018.3 - 0.0 - - - - - - -
28/10:30pm 19.1 WSW 4 4 1018.4 - 0.0 - - - - - - -
28/10:00pm 19.7 WSW 3 3 1018.2 - 0.0 - - - - - - -
28/09:30pm 20.0 SW 4 5 1018.0 - 0.0 - - - - - - -
28/09:00pm 20.1 WSW 5 6 1017.8 - 0.0 - - - - - - -
28/08:30pm 19.9 WSW 5 5 1017.7 - 0.0 - - - - - - -
28/08:00pm 19.9 W 7 8 1017.5 - 0.0 - - - - - - -
28/07:30pm 21.2 W 7 8 1017.0 - 0.0 - - - - - - -
28/07:00pm 22.0 W 7 9 1016.6 - 0.0 - - - - - - -
28/06:30pm 22.4 WNW 7 8 1016.2 - 0.0 - - - - - - -
28/06:00pm 24.2 W 8 10 1016.0 - 0.0 - - - - - - -
28/05:30pm 25.6 W 11 15 1015.9 - 0.0 - - - - - - -
28/05:00pm 26.7 WNW 11 13 1015.6 - 0.0 - - - - - - -
28/04:30pm 28.0 WNW 11 14 1015.3 - 0.0 - - - - - - -
28/04:00pm 28.4 NW 12 15 1015.4 - 0.0 - - - - - - -
28/03:30pm 29.2 NW 13 16 1015.3 - 0.0 - - - - - - -
28/03:00pm 29.6 NW 13 15 1015.3 - 0.0 - - - - - - -
28/02:30pm 29.5 NW 13 16 1015.6 - 0.0 - - - - - - -
28/02:00pm 29.4 NW 13 15 1016.3 - 0.0 - - - - - - -
28/01:30pm 30.0 NNW 11 13 1016.6 - 0.0 - - - - - - -
28/01:00pm 31.5 NNW 9 11 1016.7 - 0.0 - - - - - - -
28/12:30pm 31.2 NNW 8 11 1017.0 - 0.0 - - - - - - -
28/12:00pm 30.3 WNW 8 11 1017.5 - 0.0 - - - - - - -
28/11:30am 30.7 NW 6 9 1017.8 - 0.0 - - - - - - -
28/11:00am 29.9 ENE 4 6 1017.9 - 0.0 - - - - - - -
28/10:30am 28.5 ENE 6 8 1018.1 - 0.0 - - - - - - -
28/10:00am 27.2 ENE 5 7 1018.4 - 0.0 - - - - - - -
28/09:30am 26.0 ENE 7 8 1018.3 - 0.0 - - - - - - -
28/09:00am 24.3 ENE 7 9 1018.4 - 0.0 - - - - - - -
28/08:30am 22.3 ENE 7 9 1018.4 - 0.0 - - - - - - -
28/08:00am 20.0 ENE 6 7 1018.1 - 0.0 - - - - - - -
28/07:30am 18.4 ENE 6 7 1018.0 - 0.0 - - - - - - -
28/07:00am 16.0 ENE 5 6 1017.6 - 0.0 - - - - - - -
28/06:30am 15.4 NE 5 6 1017.1 - 0.0 - - - - - - -
28/06:00am 15.0 ENE 6 7 1016.8 - 0.0 - - - - - - -
28/05:30am 15.7 E 7 8 1016.8 - 0.0 - - - - - - -
28/05:00am 16.1 E 5 5 1016.9 - 0.0 - - - - - - -
28/04:30am 16.1 E 6 7 1016.9 - 0.0 - - - - - - -
28/04:00am 16.6 E 5 6 1016.8 - 0.0 - - - - - - -
28/03:30am 16.6 E 6 7 1017.0 - 0.0 - - - - - - -
28/03:00am 16.6 SE 6 8 1017.0 - 0.0 - - - - - - -
28/02:30am 17.1 S 6 7 1016.9 - 0.0 - - - - - - -
28/02:00am 16.9 SSE 6 8 1017.0 - 0.0 - - - - - - -
28/01:30am 17.3 E 3 5 1016.9 - 0.0 - - - - - - -
28/01:00am 17.9 ENE 4 5 1016.9 - 0.0 - - - - - - -
28/12:30am 18.6 ENE 6 7 1017.3 - 0.0 - - - - - - -
28/12:00am 18.7 ENE 5 6 1017.5 - 0.0 - - - - - - -
 
Date/Time
WST
Temp

°C
Wind Pressure Rain
since 9am
mm
Weather Cloud Vis
km
Sea
Height
m
Swell
Dir
 
Speed
knots
Gust
knots
hPa Trend Height
m
Period
s
Dir
27/11:30pm 18.8 E 5 5 1017.6 - 0.0 - - - - - - -
27/11:00pm 19.5 S 4 5 1017.6 - 0.0 - - - - - - -
27/10:30pm 20.0 CALM 0 0 1017.6 - 0.0 - - - - - - -
27/10:00pm 19.8 SSW 5 6 1017.7 - 0.0 - - - - - - -
27/09:30pm 19.6 SW 5 6 1017.7 - 0.0 - - - - - - -
27/09:00pm 20.7 NNW 2 5 1017.5 - 0.0 - - - - - - -
27/08:30pm 20.7 N 6 7 1017.4 - 0.0 - - - - - - -
27/08:00pm 21.6 WSW 4 7 1017.3 - 0.0 - - - - - - -
27/07:30pm 21.0 WSW 4 5 1017.0 - 0.0 - - - - - - -
27/07:00pm 21.8 WSW 4 6 1016.5 - 0.0 - - - - - - -
27/06:30pm 22.7 N 7 7 1015.8 - 0.0 - - - - - - -
27/06:00pm 24.8 N 6 8 1015.7 - 0.0 - - - - - - -
27/05:30pm 27.1 N 9 11 1015.6 - 0.0 - - - - - - -
27/05:00pm 28.9 NW 7 9 1015.4 - 0.0 - - - - - - -
27/04:30pm 29.1 WNW 8 10 1015.4 - 0.0 - - - - - - -
27/04:00pm 29.4 WNW 9 11 1015.4 - 0.0 - - - - - - -
27/03:30pm 29.6 NW 10 12 1015.3 - 0.0 - - - - - - -
27/03:00pm 30.1 NW 10 13 1015.5 - 0.0 - - - - - - -
27/02:30pm 30.4 NW 10 12 1015.7 - 0.0 - - - - - - -
27/02:00pm 31.1 NW 9 10 1015.8 - 0.0 - - - - - - -
27/01:30pm 31.3 NW 9 11 1016.0 - 0.0 - - - - - - -
27/01:00pm 31.1 NNW 8 12 1016.5 - 0.0 - - - - - - -
27/12:30pm 29.7 NNW 10 12 1016.9 - 0.0 - - - - - - -
27/12:00pm 30.4 N 6 9 1017.3 - 0.0 - - - - - - -
27/11:30am 29.9 N 7 9 1017.7 - 0.0 - - - - - - -
27/11:00am 29.0 NNE 7 10 1018.1 - 0.0 - - - - - - -
27/10:30am 28.3 ENE 5 8 1018.4 - 0.0 - - - - - - -
27/10:00am 26.3 E 6 11 1018.5 - 0.0 - - - - - - -
27/09:30am 24.6 E 6 9 1018.5 - 0.0 - - - - - - -
27/09:00am 23.3 E 5 7 1018.6 - 0.0 - - - - - - -
27/08:30am 21.6 ENE 6 9 1018.6 - 0.0 - - - - - - -
27/08:00am 19.8 ENE 6 7 1018.4 - 0.0 - - - - - - -
27/07:30am 17.6 ENE 4 6 1018.1 - 0.0 - - - - - - -
27/07:00am 16.1 ENE 5 6 1017.9 - 0.0 - - - - - - -
27/06:30am 15.3 E 4 6 1017.6 - 0.0 - - - - - - -
27/06:00am 15.9 ESE 5 5 1017.3 - 0.0 - - - - - - -
27/05:30am 15.1 NE 4 9 1016.8 - 0.0 - - - - - - -
27/05:00am 15.8 ENE 7 8 1016.4 - 0.0 - - - - - - -
27/04:30am 15.9 ENE 6 8 1016.3 - 0.0 - - - - - - -
27/04:00am 16.7 ENE 5 7 1016.3 - 0.0 - - - - - - -
27/03:30am 17.1 CALM 0 3 1016.3 - 0.0 - - - - - - -
27/03:00am 17.1 CALM 0 0 1016.5 - 0.0 - - - - - - -
27/02:30am 16.5 S 3 5 1016.7 - 0.0 - - - - - - -

Other Formats:

Comma delimited format used in spreadsheet applications
http://www.bom.gov.au/fwo/IDW60701/IDW60701.95305.axf

JavaScript Object Notation format (JSON) in row-major order
http://www.bom.gov.au/fwo/IDW60701/IDW60701.95305.json